createdAt,value
2022-09-21T00:01:07.110Z,3.00
2022-09-21T00:03:34.150Z,3.00
2022-09-21T00:06:05.472Z,2.50
2022-09-21T00:08:32.940Z,5.50
2022-09-21T00:11:00.560Z,3.10
2022-09-21T00:13:28.074Z,3.30
2022-09-21T00:15:55.912Z,3.20
2022-09-21T00:18:23.767Z,2.50
2022-09-21T00:20:51.986Z,3.30
2022-09-21T00:23:19.816Z,3.50
2022-09-21T00:25:46.865Z,3.10
2022-09-21T00:28:13.883Z,2.90
2022-09-21T00:30:41.479Z,4.10
2022-09-21T00:33:08.282Z,3.20
2022-09-21T00:35:35.051Z,3.50
2022-09-21T00:38:03.278Z,5.50
2022-09-21T00:40:31.443Z,3.10
2022-09-21T00:43:15.747Z,4.40
2022-09-21T00:45:46.870Z,5.10
2022-09-21T00:48:15.035Z,4.00
2022-09-21T00:50:49.536Z,4.20
2022-09-21T00:53:16.405Z,3.00
2022-09-21T00:55:49.483Z,3.20
2022-09-21T00:58:23.745Z,3.50
2022-09-21T01:00:51.771Z,4.70
2022-09-21T01:03:18.601Z,5.10
2022-09-21T01:05:45.319Z,3.50
2022-09-21T01:08:14.855Z,4.80
2022-09-21T01:10:57.274Z,3.30
2022-09-21T01:13:39.259Z,4.40
2022-09-21T01:16:17.634Z,6.10
2022-09-21T01:19:00.587Z,3.30
2022-09-21T01:21:34.744Z,2.80
2022-09-21T01:24:07.511Z,5.90
2022-09-21T01:27:08.273Z,5.00
2022-09-21T01:29:38.011Z,5.00
2022-09-21T01:32:17.811Z,4.60
2022-09-21T01:37:23.853Z,3.80
2022-09-21T01:39:57.641Z,2.90
2022-09-21T01:42:28.152Z,3.10
2022-09-21T01:44:58.973Z,3.60
2022-09-21T01:47:30.972Z,3.90
2022-09-21T01:50:02.060Z,3.10
2022-09-21T01:52:49.688Z,4.20
2022-09-21T01:55:27.539Z,4.90
2022-09-21T01:58:24.106Z,5.60
2022-09-21T02:00:55.032Z,4.80
2022-09-21T02:03:34.388Z,3.00
2022-09-21T02:06:03.631Z,2.90
2022-09-21T02:08:34.362Z,4.80
2022-09-21T02:11:02.750Z,5.10
2022-09-21T02:13:36.831Z,3.70
2022-09-21T02:16:06.372Z,3.60
2022-09-21T02:19:21.611Z,3.60
2022-09-21T02:21:59.109Z,3.40
2022-09-21T02:24:42.106Z,4.90
2022-09-21T02:27:17.583Z,4.20
2022-09-21T02:29:47.307Z,5.60
2022-09-21T02:32:26.302Z,3.30
2022-09-21T02:35:02.877Z,7.90
2022-09-21T02:37:44.564Z,3.10
2022-09-21T02:40:29.374Z,2.90
2022-09-21T02:43:01.266Z,3.40
2022-09-21T02:45:33.877Z,4.20
2022-09-21T02:48:08.160Z,8.20
2022-09-21T02:50:45.950Z,5.20
2022-09-21T02:53:18.638Z,3.30
2022-09-21T02:55:46.503Z,3.00
2022-09-21T02:58:15.972Z,2.90
2022-09-21T03:00:42.785Z,3.20
2022-09-21T03:03:24.378Z,3.70
2022-09-21T03:05:53.631Z,3.50
2022-09-21T03:08:20.787Z,2.50
2022-09-21T03:10:50.189Z,3.10
2022-09-21T03:13:18.334Z,3.70
2022-09-21T03:15:46.073Z,4.30
2022-09-21T03:18:13.397Z,4.20
2022-09-21T03:20:45.575Z,3.70
2022-09-21T03:23:13.106Z,3.70
2022-09-21T03:25:39.953Z,4.30
2022-09-21T03:28:06.707Z,3.70
2022-09-21T03:30:34.922Z,3.60
2022-09-21T03:33:02.900Z,3.20
2022-09-21T03:35:29.682Z,2.90
2022-09-21T03:37:57.477Z,4.70
2022-09-21T03:40:26.856Z,3.90
2022-09-21T03:42:55.024Z,3.50
2022-09-21T03:45:22.207Z,2.70
2022-09-21T03:47:48.934Z,5.50
2022-09-21T03:50:15.756Z,2.70
2022-09-21T03:52:42.540Z,5.60
2022-09-21T03:55:09.378Z,3.00
2022-09-21T03:57:37.011Z,5.70
2022-09-21T04:00:08.183Z,5.60
2022-09-21T04:02:36.501Z,4.40
2022-09-21T04:05:04.186Z,3.30
2022-09-21T04:07:33.938Z,2.80
2022-09-21T04:10:02.313Z,2.70
2022-09-21T04:12:29.325Z,3.30
2022-09-21T04:14:56.082Z,3.90
2022-09-21T04:17:22.909Z,2.70
2022-09-21T04:19:49.694Z,3.50
2022-09-21T04:22:16.532Z,2.80
2022-09-21T04:24:43.260Z,2.90
2022-09-21T04:27:11.708Z,3.20
2022-09-21T04:29:38.511Z,2.70
2022-09-21T04:32:05.625Z,2.90
2022-09-21T04:34:32.427Z,3.40
2022-09-21T04:36:59.343Z,4.10
2022-09-21T04:39:26.190Z,5.30
2022-09-21T04:41:52.999Z,4.00
2022-09-21T04:44:19.863Z,3.10
2022-09-21T04:46:46.707Z,3.40
2022-09-21T04:49:13.519Z,4.50
2022-09-21T04:51:40.321Z,4.80
2022-09-21T04:54:07.255Z,5.70
2022-09-21T04:56:34.516Z,4.30
2022-09-21T04:59:01.212Z,6.60
2022-09-21T05:01:28.833Z,5.60
2022-09-21T05:04:01.130Z,3.30
2022-09-21T05:06:32.901Z,4.40
2022-09-21T05:09:18.699Z,4.20
2022-09-21T05:11:45.763Z,4.20
2022-09-21T05:14:12.686Z,3.90
2022-09-21T05:16:39.512Z,4.10
2022-09-21T05:19:07.152Z,4.80
2022-09-21T05:21:35.797Z,4.30
2022-09-21T05:24:02.916Z,4.00
2022-09-21T05:26:29.934Z,4.70
2022-09-21T05:28:57.018Z,6.30
2022-09-21T05:31:40.281Z,8.10
2022-09-21T05:34:36.154Z,9.50
2022-09-21T05:37:24.348Z,9.70
2022-09-21T05:39:51.379Z,7.30
2022-09-21T05:42:18.313Z,6.40
2022-09-21T05:44:45.311Z,5.60
2022-09-21T05:47:37.095Z,4.10
2022-09-21T05:50:48.891Z,5.70
2022-09-21T05:53:24.690Z,5.30
2022-09-21T05:56:00.255Z,5.10
2022-09-21T05:58:53.039Z,3.60
2022-09-21T06:01:38.970Z,5.50
2022-09-21T06:04:10.737Z,5.40
2022-09-21T06:06:38.381Z,4.30
2022-09-21T06:09:05.108Z,7.40
2022-09-21T06:11:32.046Z,3.10
2022-09-21T06:14:01.169Z,4.00
2022-09-21T06:16:37.030Z,3.50
2022-09-21T06:19:03.974Z,4.20
2022-09-21T06:21:30.821Z,4.00
2022-09-21T06:23:57.944Z,4.50
2022-09-21T06:26:26.450Z,4.30
2022-09-21T06:28:53.200Z,3.10
2022-09-21T06:31:19.957Z,4.30
2022-09-21T06:33:48.223Z,3.70
2022-09-21T06:36:16.025Z,3.50
2022-09-21T06:38:42.798Z,3.40
2022-09-21T06:41:10.420Z,5.90
2022-09-21T06:43:37.144Z,4.10
2022-09-21T06:46:04.459Z,4.80
2022-09-21T06:48:33.778Z,4.40
2022-09-21T06:51:03.286Z,3.80
2022-09-21T06:53:31.911Z,3.40
2022-09-21T06:56:03.532Z,3.10
2022-09-21T06:58:33.691Z,3.10
2022-09-21T07:01:11.965Z,4.00
2022-09-21T07:03:40.542Z,5.20
2022-09-21T07:06:08.671Z,3.30
2022-09-21T07:11:23.538Z,3.70
2022-09-21T07:13:50.449Z,2.40
2022-09-21T07:16:18.207Z,2.70
2022-09-21T07:18:45.467Z,3.00
2022-09-21T07:21:12.565Z,2.80
2022-09-21T07:23:39.221Z,2.00
2022-09-21T07:26:11.961Z,1.80
2022-09-21T07:28:39.567Z,1.90
2022-09-21T07:31:15.091Z,1.90
2022-09-21T07:33:46.025Z,1.90
2022-09-21T07:36:13.340Z,2.00
2022-09-21T07:38:43.937Z,4.20
2022-09-21T07:41:13.628Z,1.30
2022-09-21T07:43:41.144Z,2.20
2022-09-21T07:46:12.524Z,5.80
2022-09-21T07:48:39.590Z,1.60
2022-09-21T07:51:09.467Z,1.60
2022-09-21T07:56:10.115Z,3.60
2022-09-21T07:58:56.801Z,1.20
2022-09-21T08:01:24.526Z,2.30
2022-09-21T08:03:53.704Z,1.00
2022-09-21T08:06:21.719Z,2.10
2022-09-21T08:08:53.711Z,1.40
2022-09-21T08:11:25.401Z,1.30
2022-09-21T08:13:53.855Z,2.70
2022-09-21T08:16:20.915Z,1.40
2022-09-21T08:18:48.006Z,1.10
2022-09-21T08:21:14.783Z,1.10
2022-09-21T08:23:42.512Z,1.00
2022-09-21T08:26:20.851Z,1.60
2022-09-21T08:28:52.351Z,1.90
2022-09-21T08:31:21.374Z,1.20
2022-09-21T08:33:49.333Z,0.90
2022-09-21T08:36:16.615Z,1.80
2022-09-21T08:38:43.644Z,2.60
2022-09-21T08:41:14.330Z,1.00
2022-09-21T08:43:44.254Z,0.90
2022-09-21T08:46:18.419Z,1.70
2022-09-21T08:49:10.374Z,3.10
2022-09-21T08:51:49.276Z,1.20
2022-09-21T08:54:25.168Z,1.10
2022-09-21T08:57:06.327Z,1.30
2022-09-21T08:59:34.800Z,0.90
2022-09-21T09:02:22.474Z,1.10
2022-09-21T09:05:11.209Z,1.50
2022-09-21T09:07:56.514Z,1.00
2022-09-21T09:10:41.016Z,2.00
2022-09-21T09:13:07.697Z,0.90
2022-09-21T09:15:58.465Z,0.60
2022-09-21T09:18:34.655Z,1.00
2022-09-21T09:21:16.539Z,1.20
2022-09-21T09:23:59.883Z,1.60
2022-09-21T09:29:24.429Z,0.70
2022-09-21T09:34:44.497Z,1.70
2022-09-21T09:37:14.301Z,0.60
2022-09-21T09:42:37.055Z,0.60
2022-09-21T09:45:54.680Z,0.90
2022-09-21T09:48:23.910Z,0.60
2022-09-21T09:50:50.666Z,0.40
2022-09-21T09:53:21.823Z,0.40
2022-09-21T09:55:54.119Z,0.70
2022-09-21T09:58:30.478Z,0.50
2022-09-21T10:00:58.951Z,0.50
2022-09-21T10:03:27.355Z,1.70
2022-09-21T10:05:55.060Z,0.60
2022-09-21T10:08:46.798Z,1.10
2022-09-21T10:11:15.777Z,0.40
2022-09-21T10:13:48.547Z,0.40
2022-09-21T10:16:21.596Z,0.50
2022-09-21T10:19:00.827Z,0.30
2022-09-21T10:21:35.324Z,1.60
2022-09-21T10:24:02.181Z,1.00
2022-09-21T10:26:36.431Z,1.40
2022-09-21T10:29:29.747Z,0.60
2022-09-21T10:31:58.663Z,0.40
2022-09-21T10:34:29.671Z,0.40
2022-09-21T10:36:59.469Z,1.60
2022-09-21T10:42:15.784Z,0.50
2022-09-21T10:44:45.570Z,0.50
2022-09-21T10:49:49.858Z,0.50
2022-09-21T10:52:21.128Z,0.50
2022-09-21T10:54:51.933Z,0.40
2022-09-21T10:57:22.023Z,0.50
2022-09-21T10:59:49.010Z,0.40
2022-09-21T11:02:29.290Z,0.60
2022-09-21T11:05:21.287Z,0.70
2022-09-21T11:07:56.774Z,0.90
2022-09-21T11:10:41.876Z,1.30
2022-09-21T11:13:09.552Z,2.20
2022-09-21T11:16:00.920Z,1.10
2022-09-21T11:18:48.736Z,0.30
2022-09-21T11:21:46.329Z,0.50
2022-09-21T11:24:33.358Z,0.50
2022-09-21T11:27:04.977Z,0.50
2022-09-21T11:29:56.557Z,0.60
2022-09-21T11:32:45.117Z,0.70
2022-09-21T11:35:26.450Z,1.40
2022-09-21T11:38:43.465Z,0.60
2022-09-21T11:41:13.382Z,0.60
2022-09-21T11:44:03.657Z,0.70
2022-09-21T11:46:58.452Z,0.60
2022-09-21T11:49:33.873Z,0.50
2022-09-21T11:52:38.540Z,1.50
2022-09-21T11:55:15.604Z,1.40
2022-09-21T11:57:55.051Z,0.50
2022-09-21T12:03:14.973Z,1.40
2022-09-21T12:05:56.810Z,0.60
2022-09-21T12:08:29.438Z,0.80
2022-09-21T12:11:20.697Z,0.50
2022-09-21T12:14:14.895Z,1.90
2022-09-21T12:16:52.705Z,0.50
2022-09-21T12:19:34.125Z,0.50
2022-09-21T12:22:25.561Z,2.70
2022-09-21T12:24:57.802Z,1.10
2022-09-21T12:27:46.710Z,1.00
2022-09-21T12:30:19.411Z,0.60
2022-09-21T12:32:52.570Z,1.20
2022-09-21T12:35:27.869Z,1.90
2022-09-21T12:38:05.465Z,1.20
2022-09-21T12:40:50.877Z,0.60
2022-09-21T12:43:36.491Z,0.70
2022-09-21T12:46:14.079Z,0.40
2022-09-21T12:48:45.063Z,0.90
2022-09-21T12:51:17.683Z,0.70
2022-09-21T12:53:51.408Z,0.60
2022-09-21T12:56:43.230Z,0.50
2022-09-21T12:59:30.542Z,1.50
2022-09-21T13:02:12.574Z,0.90
2022-09-21T13:04:45.174Z,0.60
2022-09-21T13:07:32.847Z,1.70
2022-09-21T13:10:07.544Z,0.60
2022-09-21T13:12:44.372Z,1.90
2022-09-21T13:15:23.614Z,1.00
2022-09-21T13:18:17.732Z,0.60
2022-09-21T13:20:45.661Z,0.80
2022-09-21T13:23:17.141Z,1.30
2022-09-21T13:25:59.981Z,1.30
2022-09-21T13:29:00.072Z,0.70
2022-09-21T13:31:41.489Z,1.50
2022-09-21T13:34:50.324Z,0.90
2022-09-21T13:37:20.038Z,2.00
2022-09-21T13:40:02.366Z,0.40
2022-09-21T13:42:32.496Z,0.50
2022-09-21T13:47:33.485Z,0.60
2022-09-21T13:50:09.949Z,0.60
2022-09-21T13:52:47.640Z,0.70
2022-09-21T13:55:52.634Z,1.10
2022-09-21T13:58:32.272Z,1.30
2022-09-21T14:03:40.393Z,1.70
2022-09-21T14:06:11.937Z,0.60
2022-09-21T14:08:54.398Z,0.80
2022-09-21T14:11:28.925Z,0.90
2022-09-21T14:14:09.544Z,0.80
2022-09-21T14:16:39.301Z,1.30
2022-09-21T14:22:04.544Z,0.60
2022-09-21T14:24:50.922Z,1.00
2022-09-21T14:27:42.307Z,0.80
2022-09-21T14:30:28.636Z,1.30
2022-09-21T14:33:32.682Z,1.40
2022-09-21T14:36:06.846Z,1.40
2022-09-21T14:38:47.703Z,0.70
2022-09-21T14:41:20.293Z,0.80
2022-09-21T14:43:53.998Z,1.10
2022-09-21T14:46:48.859Z,2.30
2022-09-21T14:49:32.326Z,1.40
2022-09-21T14:52:31.881Z,2.20
2022-09-21T14:55:05.245Z,1.30
2022-09-21T14:57:53.161Z,0.70
2022-09-21T15:00:31.298Z,0.60
2022-09-21T15:03:18.380Z,2.40
2022-09-21T15:05:53.074Z,7.20
2022-09-21T15:08:50.626Z,4.00
2022-09-21T15:11:28.751Z,3.30
2022-09-21T15:14:16.388Z,8.20
2022-09-21T15:16:46.755Z,2.70
2022-09-21T15:19:34.657Z,3.60
2022-09-21T15:22:22.317Z,2.90
2022-09-21T15:24:50.721Z,2.20
2022-09-21T15:27:19.626Z,2.00
2022-09-21T15:29:53.255Z,2.80
2022-09-21T15:32:29.148Z,2.60
2022-09-21T15:35:06.132Z,1.30
2022-09-21T15:37:39.093Z,2.10
2022-09-21T15:40:23.488Z,2.70
2022-09-21T15:43:20.086Z,1.80
2022-09-21T15:45:55.759Z,2.20
2022-09-21T15:48:24.066Z,9.70
2022-09-21T15:50:57.546Z,11.30
2022-09-21T15:53:32.568Z,3.50
2022-09-21T15:56:01.059Z,24.00
2022-09-21T15:58:36.758Z,3.60
2022-09-21T16:01:13.466Z,3.00
2022-09-21T16:03:41.361Z,2.90
2022-09-21T16:06:27.471Z,1.70
2022-09-21T16:08:54.719Z,5.40
2022-09-21T16:11:25.788Z,3.30
2022-09-21T16:14:35.828Z,1.50
2022-09-21T16:17:09.129Z,2.00
2022-09-21T16:19:43.066Z,2.00
2022-09-21T16:22:15.716Z,9.20
2022-09-21T16:25:01.188Z,2.70
2022-09-21T16:27:31.517Z,1.90
2022-09-21T16:30:00.524Z,4.20
2022-09-21T16:32:31.503Z,4.10
2022-09-21T16:35:30.750Z,4.40
2022-09-21T16:37:58.411Z,3.60
2022-09-21T16:40:26.398Z,5.30
2022-09-21T16:42:53.819Z,2.70
2022-09-21T16:45:28.000Z,2.50
2022-09-21T16:47:55.733Z,2.00
2022-09-21T16:50:23.948Z,2.20
2022-09-21T16:52:52.271Z,3.20
2022-09-21T16:55:19.672Z,6.50
2022-09-21T16:57:48.336Z,7.90
2022-09-21T17:00:21.509Z,2.30
2022-09-21T17:04:10.621Z,1.80
2022-09-21T17:06:39.465Z,2.80
2022-09-21T17:09:48.184Z,2.00
2022-09-21T17:12:17.883Z,3.20
2022-09-21T17:14:47.314Z,1.50
2022-09-21T17:17:22.602Z,2.50
2022-09-21T17:19:54.084Z,2.90
2022-09-21T17:22:24.599Z,1.40
2022-09-21T17:25:12.304Z,3.30
2022-09-21T17:27:41.819Z,11.30
2022-09-21T17:30:13.923Z,24.70
2022-09-21T17:32:42.683Z,21.90
2022-09-21T17:35:32.414Z,15.70
2022-09-21T17:38:00.104Z,14.30
2022-09-21T17:40:29.625Z,14.20
2022-09-21T17:43:06.385Z,18.20
2022-09-21T17:46:06.662Z,17.60
2022-09-21T17:48:40.102Z,9.80
2022-09-21T17:51:07.753Z,5.30
2022-09-21T17:53:36.669Z,5.40
2022-09-21T17:56:40.809Z,8.40
2022-09-21T17:59:31.901Z,8.10
2022-09-21T18:02:00.800Z,6.60
2022-09-21T18:04:34.497Z,9.90
2022-09-21T18:07:04.257Z,13.80
2022-09-21T18:09:35.191Z,13.50
2022-09-21T18:12:03.717Z,11.20
2022-09-21T18:14:52.549Z,35.10
2022-09-21T18:18:02.076Z,29.60
2022-09-21T18:20:29.013Z,37.60
2022-09-21T18:23:19.179Z,48.90
2022-09-21T18:29:50.945Z,17.30
2022-09-21T18:33:00.458Z,22.40
2022-09-21T18:35:42.203Z,12.40
2022-09-21T18:38:29.348Z,9.20
2022-09-21T18:41:31.081Z,8.70
2022-09-21T18:44:08.727Z,5.60
2022-09-21T18:46:52.049Z,6.00
2022-09-21T18:49:57.784Z,5.90
2022-09-21T18:52:43.064Z,23.10
2022-09-21T18:55:26.447Z,15.80
2022-09-21T18:57:55.345Z,8.20
2022-09-21T19:00:30.963Z,9.00
2022-09-21T19:03:16.367Z,7.40
2022-09-21T19:06:07.309Z,4.70
2022-09-21T19:08:53.225Z,4.30
2022-09-21T19:11:31.308Z,3.60
2022-09-21T19:14:29.300Z,6.80
2022-09-21T19:17:16.626Z,4.70
2022-09-21T19:19:55.586Z,7.00
2022-09-21T19:22:27.767Z,5.00
2022-09-21T19:25:28.219Z,5.00
2022-09-21T19:28:09.643Z,7.30
2022-09-21T19:30:38.447Z,6.20
2022-09-21T19:33:45.485Z,5.00
2022-09-21T19:36:09.276Z,5.20
2022-09-21T19:38:37.340Z,7.40
2022-09-21T19:41:17.190Z,9.00
2022-09-21T19:46:44.225Z,5.30
2022-09-21T19:49:18.619Z,4.30
2022-09-21T19:51:56.493Z,5.10
2022-09-21T19:54:47.192Z,5.10
2022-09-21T19:57:34.294Z,5.20
2022-09-21T20:00:03.867Z,4.60
2022-09-21T20:02:40.116Z,5.30
2022-09-21T20:05:33.772Z,3.30
2022-09-21T20:08:24.173Z,3.90
2022-09-21T20:14:45.065Z,3.10
2022-09-21T20:17:18.015Z,7.10
2022-09-21T20:20:15.377Z,7.10
2022-09-21T20:22:42.380Z,8.40
2022-09-21T20:25:09.452Z,9.30
2022-09-21T20:27:44.510Z,11.30
2022-09-21T20:30:16.604Z,13.40
2022-09-21T20:32:46.155Z,13.80
2022-09-21T20:35:17.510Z,14.10
2022-09-21T20:37:44.709Z,17.30
2022-09-21T20:40:12.924Z,14.70
2022-09-21T20:42:44.358Z,16.50
2022-09-21T20:45:12.667Z,16.80
2022-09-21T20:47:39.662Z,19.50
2022-09-21T20:50:12.253Z,20.60
2022-09-21T20:53:01.933Z,21.20
2022-09-21T20:55:28.758Z,19.30
2022-09-21T20:57:55.647Z,27.10
2022-09-21T21:00:22.483Z,33.80
2022-09-21T21:02:49.379Z,32.10
2022-09-21T21:05:18.096Z,28.30
2022-09-21T21:07:44.989Z,22.10
2022-09-21T21:10:16.165Z,17.20
2022-09-21T21:12:43.246Z,13.10
2022-09-21T21:15:12.098Z,13.50
2022-09-21T21:17:40.203Z,22.10
2022-09-21T21:20:08.267Z,31.20
2022-09-21T21:22:35.698Z,36.10
2022-09-21T21:25:03.167Z,36.90
2022-09-21T21:27:30.501Z,48.80
2022-09-21T21:29:58.033Z,61.40
2022-09-21T21:32:26.140Z,95.50
2022-09-21T21:34:54.544Z,109.90
2022-09-21T21:37:25.161Z,78.30
2022-09-21T21:39:52.953Z,53.30
2022-09-21T21:42:22.109Z,55.60
2022-09-21T21:44:50.278Z,59.60
2022-09-21T21:50:06.069Z,29.70
2022-09-21T21:52:32.900Z,28.00
2022-09-21T21:54:59.594Z,22.00
2022-09-21T21:57:26.492Z,22.20
2022-09-21T21:59:53.232Z,12.00
2022-09-21T22:02:21.746Z,10.90
2022-09-21T22:06:22.401Z,9.30
2022-09-21T22:12:25.214Z,6.40
2022-09-21T22:15:24.227Z,7.00
2022-09-21T22:21:27.313Z,4.80
2022-09-21T22:24:05.482Z,7.50
2022-09-21T22:34:11.418Z,6.30
2022-09-21T22:34:39.845Z,5.10
2022-09-21T22:42:13.042Z,8.60
2022-09-21T22:45:39.220Z,8.00
2022-09-21T22:49:15.102Z,7.70
2022-09-21T22:51:19.833Z,7.50
2022-09-21T22:53:50.635Z,8.60
2022-09-21T22:56:23.914Z,6.00
2022-09-21T22:59:10.213Z,7.50
2022-09-21T23:01:40.169Z,9.70
2022-09-21T23:04:09.743Z,8.20
2022-09-21T23:06:39.002Z,7.50
2022-09-21T23:09:09.309Z,7.40
2022-09-21T23:11:41.574Z,5.50
2022-09-21T23:14:10.148Z,7.00
2022-09-21T23:16:58.395Z,5.80
2022-09-21T23:19:56.673Z,5.10
2022-09-21T23:22:23.887Z,6.70
2022-09-21T23:24:50.644Z,7.90
2022-09-21T23:27:17.364Z,8.50
2022-09-21T23:29:44.149Z,7.90
2022-09-21T23:32:10.867Z,7.30
2022-09-21T23:34:37.584Z,6.10
2022-09-21T23:37:04.431Z,5.80
2022-09-21T23:39:31.439Z,5.20
2022-09-21T23:41:58.400Z,5.70
2022-09-21T23:44:25.446Z,6.00
2022-09-21T23:46:52.289Z,4.70
2022-09-21T23:49:19.087Z,5.60
2022-09-21T23:51:45.897Z,4.20
2022-09-21T23:54:14.667Z,3.90
2022-09-21T23:56:42.166Z,6.70
2022-09-21T23:59:09.403Z,8.10
